createdAt,value
2018-09-13T00:01:16.907Z,60.25
2018-09-13T00:03:48.198Z,60.76
2018-09-13T00:06:19.053Z,68.19
2018-09-13T00:08:49.331Z,73.62
2018-09-13T00:11:20.099Z,77.46
2018-09-13T00:13:50.307Z,79.55
2018-09-13T00:16:20.409Z,79.95
2018-09-13T00:18:52.015Z,80.29
2018-09-13T00:21:22.050Z,79.28
2018-09-13T00:23:54.322Z,79.45
2018-09-13T00:26:25.755Z,80.85
2018-09-13T00:28:55.972Z,81.85
2018-09-13T00:31:26.954Z,84.37
2018-09-13T00:33:58.035Z,86.38
2018-09-13T00:36:28.248Z,86.29
2018-09-13T00:38:59.086Z,88.17
2018-09-13T00:41:29.386Z,87.21
2018-09-13T00:43:59.764Z,88.35
2018-09-13T00:46:31.632Z,88.76
2018-09-13T00:49:02.518Z,89.41
2018-09-13T00:51:33.527Z,89.29
2018-09-13T00:54:04.240Z,89.47
2018-09-13T00:56:34.500Z,90.17
2018-09-13T00:59:04.908Z,89.43
2018-09-13T01:01:34.929Z,90.40
2018-09-13T01:04:06.378Z,89.24
2018-09-13T01:06:37.288Z,89.91
2018-09-13T01:09:10.637Z,89.66
2018-09-13T01:11:42.170Z,90.40
2018-09-13T01:14:13.154Z,91.17
2018-09-13T01:16:44.503Z,90.87
2018-09-13T01:19:15.661Z,91.01
2018-09-13T01:21:45.837Z,90.39
2018-09-13T01:24:15.916Z,90.87
2018-09-13T01:26:46.110Z,91.63
2018-09-13T01:29:16.186Z,92.85
2018-09-13T01:31:46.275Z,92.23
2018-09-13T01:34:17.170Z,91.83
2018-09-13T01:36:47.608Z,92.07
2018-09-13T01:39:18.470Z,93.00
2018-09-13T01:41:49.314Z,92.65
2018-09-13T01:44:20.264Z,92.93
2018-09-13T01:46:50.710Z,92.29
2018-09-13T01:49:21.506Z,92.46
2018-09-13T01:51:52.646Z,91.84
2018-09-13T01:54:22.772Z,92.91
2018-09-13T01:56:56.215Z,92.87
2018-09-13T01:59:27.474Z,93.20
2018-09-13T02:01:58.331Z,93.14
2018-09-13T02:04:28.516Z,93.10
2018-09-13T02:06:59.368Z,93.29
2018-09-13T02:09:30.150Z,93.09
2018-09-13T02:12:02.003Z,92.61
2018-09-13T02:14:32.778Z,92.76
2018-09-13T02:17:04.710Z,93.06
2018-09-13T02:19:35.864Z,93.64
2018-09-13T02:22:07.550Z,93.50
2018-09-13T02:24:38.128Z,93.59
2018-09-13T02:27:09.090Z,93.64
2018-09-13T02:29:40.719Z,93.12
2018-09-13T02:32:11.901Z,93.33
2018-09-13T02:34:43.143Z,94.04
2018-09-13T02:37:14.930Z,94.18
2018-09-13T02:39:48.518Z,93.86
2018-09-13T02:42:19.847Z,94.12
2018-09-13T02:44:51.163Z,94.95
2018-09-13T02:47:22.819Z,94.13
2018-09-13T02:49:53.178Z,94.42
2018-09-13T02:52:23.284Z,94.37
2018-09-13T02:54:54.053Z,93.91
2018-09-13T02:57:25.779Z,93.59
2018-09-13T02:59:57.409Z,93.42
2018-09-13T03:02:27.791Z,93.35
2018-09-13T03:04:57.852Z,93.42
2018-09-13T03:07:29.582Z,94.22
2018-09-13T03:09:59.663Z,94.67
2018-09-13T03:12:30.001Z,94.22
2018-09-13T03:15:00.587Z,94.12
2018-09-13T03:17:31.273Z,94.79
2018-09-13T03:20:02.598Z,94.56
2018-09-13T03:22:33.460Z,95.00
2018-09-13T03:25:03.949Z,94.67
2018-09-13T03:27:35.275Z,94.69
2018-09-13T03:30:07.763Z,93.72
2018-09-13T03:32:38.089Z,95.04
2018-09-13T03:35:08.217Z,96.30
2018-09-13T03:37:40.235Z,96.44
2018-09-13T03:40:11.048Z,96.32
2018-09-13T03:42:41.794Z,95.65
2018-09-13T03:45:13.227Z,95.55
2018-09-13T03:47:44.915Z,95.82
2018-09-13T03:50:16.017Z,94.38
2018-09-13T03:52:46.428Z,93.88
2018-09-13T03:55:18.305Z,93.63
2018-09-13T03:57:48.975Z,94.77
2018-09-13T04:00:21.858Z,95.22
2018-09-13T04:02:53.739Z,94.79
2018-09-13T04:05:24.435Z,95.06
2018-09-13T04:07:58.544Z,94.00
2018-09-13T04:10:29.979Z,93.69
2018-09-13T04:13:01.083Z,95.16
2018-09-13T04:15:32.901Z,95.48
2018-09-13T04:18:03.708Z,95.77
2018-09-13T04:20:34.440Z,95.73
2018-09-13T04:23:05.165Z,95.41
2018-09-13T04:25:35.582Z,94.81
2018-09-13T04:28:06.173Z,95.26
2018-09-13T04:30:37.595Z,94.84
2018-09-13T04:33:07.908Z,94.89
2018-09-13T04:35:38.294Z,94.98
2018-09-13T04:38:11.916Z,95.34
2018-09-13T04:40:43.534Z,95.20
2018-09-13T04:43:14.674Z,95.63
2018-09-13T04:45:46.594Z,96.79
2018-09-13T04:48:19.584Z,95.93
2018-09-13T04:50:51.146Z,95.91
2018-09-13T04:53:22.653Z,96.06
2018-09-13T04:55:53.807Z,95.07
2018-09-13T04:58:27.202Z,94.51
2018-09-13T05:00:57.991Z,94.35
2018-09-13T05:03:28.461Z,94.92
2018-09-13T05:05:59.146Z,94.27
2018-09-13T05:08:29.132Z,93.44
2018-09-13T05:10:59.270Z,93.21
2018-09-13T05:13:30.366Z,92.90
2018-09-13T05:16:07.291Z,92.41
2018-09-13T05:18:39.242Z,91.91
2018-09-13T05:21:10.699Z,91.05
2018-09-13T05:23:40.802Z,90.59
2018-09-13T05:26:11.590Z,89.86
2018-09-13T05:28:42.684Z,89.25
2018-09-13T05:31:13.314Z,90.33
2018-09-13T05:33:43.430Z,90.62
2018-09-13T05:36:14.224Z,89.75
2018-09-13T05:38:45.039Z,89.57
2018-09-13T05:41:16.640Z,88.71
2018-09-13T05:43:48.390Z,88.69
2018-09-13T05:46:19.638Z,87.97
2018-09-13T05:48:49.960Z,87.19
2018-09-13T05:51:19.971Z,87.10
2018-09-13T05:53:50.051Z,87.42
2018-09-13T05:56:21.150Z,87.29
2018-09-13T05:58:51.304Z,86.69
2018-09-13T06:01:21.886Z,85.44
2018-09-13T06:03:52.930Z,85.58
2018-09-13T06:06:22.994Z,85.02
2018-09-13T06:08:55.570Z,84.62
2018-09-13T06:11:25.675Z,82.88
2018-09-13T06:13:55.820Z,82.25
2018-09-13T06:16:30.122Z,82.17
2018-09-13T06:19:01.705Z,81.10
2018-09-13T06:21:34.977Z,81.12
2018-09-13T06:24:05.311Z,79.89
2018-09-13T06:26:37.636Z,79.44
2018-09-13T06:29:10.085Z,79.22
2018-09-13T06:31:41.577Z,78.41
2018-09-13T06:34:11.933Z,76.30
2018-09-13T06:36:43.996Z,75.35
2018-09-13T06:39:16.457Z,78.23
2018-09-13T06:41:53.294Z,79.75
2018-09-13T06:44:24.004Z,80.03
2018-09-13T06:46:55.794Z,79.62
2018-09-13T06:49:27.581Z,79.18
2018-09-13T06:51:57.738Z,78.65
2018-09-13T06:54:28.728Z,76.48
2018-09-13T06:56:59.240Z,76.64
2018-09-13T06:59:30.232Z,73.40
2018-09-13T07:02:02.435Z,73.30
2018-09-13T07:04:32.613Z,72.67
2018-09-13T07:07:02.692Z,72.47
2018-09-13T07:09:34.703Z,72.15
2018-09-13T07:12:04.770Z,73.43
2018-09-13T07:14:35.261Z,73.10
2018-09-13T07:17:06.207Z,73.43
2018-09-13T07:19:37.861Z,72.74
2018-09-13T07:22:08.517Z,70.61
2018-09-13T07:24:39.683Z,69.16
2018-09-13T07:27:09.820Z,68.37
2018-09-13T07:29:40.922Z,69.20
2018-09-13T07:32:16.076Z,70.19
2018-09-13T07:34:47.472Z,69.50
2018-09-13T07:37:19.409Z,71.38
2018-09-13T07:39:49.803Z,71.24
2018-09-13T07:42:23.282Z,71.24
2018-09-13T07:45:01.929Z,71.98
2018-09-13T07:47:33.423Z,72.08
2018-09-13T07:50:03.855Z,73.30
2018-09-13T07:52:35.734Z,74.09
2018-09-13T07:55:07.929Z,72.89
2018-09-13T07:57:38.140Z,72.02
2018-09-13T08:00:09.419Z,72.77
2018-09-13T08:02:39.515Z,73.15
2018-09-13T08:05:11.123Z,74.00
2018-09-13T08:07:41.834Z,74.31
2018-09-13T08:10:12.830Z,74.35
2018-09-13T08:12:43.064Z,74.23
2018-09-13T08:15:15.000Z,75.16
2018-09-13T08:17:46.160Z,74.93
2018-09-13T08:20:17.793Z,76.68
2018-09-13T08:22:49.396Z,75.83
2018-09-13T08:25:19.513Z,77.10
2018-09-13T08:27:51.579Z,76.60
2018-09-13T08:30:22.762Z,75.14
2018-09-13T08:32:53.923Z,72.12
2018-09-13T08:35:26.129Z,71.65
2018-09-13T08:37:56.581Z,71.76
2018-09-13T08:40:27.066Z,71.00
2018-09-13T08:42:58.887Z,71.19
2018-09-13T08:45:29.263Z,71.70
2018-09-13T08:47:59.908Z,71.75
2018-09-13T08:50:30.233Z,72.12
2018-09-13T08:53:00.564Z,75.00
2018-09-13T08:55:31.928Z,76.58
2018-09-13T08:58:03.082Z,76.33
2018-09-13T09:00:33.630Z,75.80
2018-09-13T09:03:06.820Z,75.14
2018-09-13T09:05:37.157Z,76.59
2018-09-13T09:08:08.598Z,75.40
2018-09-13T09:10:40.134Z,75.95
2018-09-13T09:13:10.942Z,75.54
2018-09-13T09:15:46.888Z,74.51
2018-09-13T09:18:17.018Z,73.39
2018-09-13T09:20:51.814Z,73.04
2018-09-13T09:23:21.934Z,73.37
2018-09-13T09:25:53.552Z,72.29
2018-09-13T09:28:26.374Z,72.72
2018-09-13T09:30:56.478Z,72.43
2018-09-13T09:33:28.686Z,72.65
2018-09-13T09:36:00.108Z,73.52
2018-09-13T09:38:30.820Z,75.04
2018-09-13T09:41:01.914Z,74.30
2018-09-13T09:43:34.673Z,73.64
2018-09-13T09:46:09.724Z,75.08
2018-09-13T09:48:40.810Z,74.05
2018-09-13T09:51:14.040Z,74.31
2018-09-13T09:53:46.206Z,73.58
2018-09-13T09:56:16.883Z,74.29
2018-09-13T09:58:47.256Z,74.15
2018-09-13T10:01:27.570Z,73.26
2018-09-13T10:06:42.498Z,72.17
2018-09-13T10:09:13.560Z,71.46
2018-09-13T10:11:43.969Z,69.54
2018-09-13T10:14:16.013Z,68.51
2018-09-13T10:17:20.068Z,67.33
2018-09-13T10:20:12.489Z,65.68
2018-09-13T10:22:52.136Z,65.08
2018-09-13T10:25:28.988Z,64.32
2018-09-13T10:28:14.002Z,63.28
2018-09-13T10:30:55.999Z,64.04
2018-09-13T10:33:53.547Z,63.92
2018-09-13T10:36:42.876Z,64.35
2018-09-13T10:39:22.188Z,64.34
2018-09-13T10:41:58.310Z,63.21
2018-09-13T10:44:37.452Z,62.96
2018-09-13T10:47:26.782Z,61.24
2018-09-13T10:50:03.103Z,60.12
2018-09-13T10:52:39.991Z,59.35
2018-09-13T10:55:10.728Z,58.89
2018-09-13T10:57:41.455Z,56.00
2018-09-13T11:00:16.076Z,56.57
2018-09-13T11:02:48.963Z,56.70
2018-09-13T11:05:20.541Z,56.17
2018-09-13T11:07:50.735Z,54.20
2018-09-13T11:10:23.258Z,54.68
2018-09-13T11:16:41.101Z,54.88
2018-09-13T11:19:14.046Z,54.49
2018-09-13T11:21:45.749Z,54.96
2018-09-13T11:24:16.833Z,55.06
2018-09-13T11:26:48.878Z,56.71
2018-09-13T11:29:19.335Z,57.40
2018-09-13T11:31:49.497Z,58.52
2018-09-13T11:34:20.497Z,58.29
2018-09-13T11:36:51.556Z,57.52
2018-09-13T11:39:22.025Z,56.30
2018-09-13T11:41:52.419Z,55.20
2018-09-13T11:44:25.144Z,49.50
2018-09-13T11:46:55.445Z,45.70
2018-09-13T11:49:30.371Z,41.30
2018-09-13T11:52:04.896Z,41.63
2018-09-13T11:54:41.597Z,42.37
2018-09-13T11:57:12.110Z,42.70
2018-09-13T11:59:43.876Z,44.58
2018-09-13T12:02:14.948Z,44.93
2018-09-13T12:04:46.357Z,47.86
2018-09-13T12:07:17.352Z,48.75
2018-09-13T12:09:47.559Z,47.85
2018-09-13T12:12:18.584Z,47.92
2018-09-13T12:14:49.632Z,47.65
2018-09-13T12:17:19.742Z,47.22
2018-09-13T12:19:51.928Z,47.90
2018-09-13T12:22:22.896Z,48.48
2018-09-13T12:24:54.647Z,48.09
2018-09-13T12:27:25.402Z,48.46
2018-09-13T12:29:56.012Z,46.55
2018-09-13T12:32:27.306Z,46.91
2018-09-13T12:34:58.504Z,44.28
2018-09-13T12:37:29.838Z,43.45
2018-09-13T12:40:02.408Z,42.18
2018-09-13T12:42:38.564Z,38.98
2018-09-13T12:45:11.997Z,39.92
2018-09-13T12:47:43.295Z,40.31
2018-09-13T12:50:13.934Z,40.06
2018-09-13T12:52:45.914Z,37.55
2018-09-13T12:55:19.796Z,39.12
2018-09-13T12:57:54.476Z,37.89
2018-09-13T13:00:25.838Z,36.82
2018-09-13T13:02:56.756Z,35.00
2018-09-13T13:05:27.306Z,35.20
2018-09-13T13:07:58.206Z,36.83
2018-09-13T13:10:28.785Z,36.36
2018-09-13T13:13:12.038Z,35.72
2018-09-13T13:15:48.401Z,38.54
2018-09-13T13:18:18.682Z,40.27
2018-09-13T13:20:51.626Z,42.61
2018-09-13T13:23:21.812Z,43.70
2018-09-13T13:26:04.138Z,44.64
2018-09-13T13:28:48.350Z,43.90
2018-09-13T13:31:18.901Z,44.53
2018-09-13T13:33:54.650Z,44.45
2018-09-13T13:36:25.987Z,44.68
2018-09-13T13:38:56.735Z,44.75
2018-09-13T13:41:29.990Z,43.11
2018-09-13T13:44:01.252Z,42.34
2018-09-13T13:46:31.843Z,41.09
2018-09-13T13:49:02.412Z,42.16
2018-09-13T13:51:31.748Z,45.32
2018-09-13T13:54:00.946Z,47.09
2018-09-13T13:56:30.048Z,48.60
2018-09-13T13:58:59.512Z,48.46
2018-09-13T14:01:29.824Z,49.49
2018-09-13T14:03:59.276Z,48.84
2018-09-13T14:06:29.035Z,48.65
2018-09-13T14:08:58.248Z,48.14
2018-09-13T14:11:30.018Z,47.58
2018-09-13T14:14:00.093Z,48.52
2018-09-13T14:16:29.752Z,48.03
2018-09-13T14:18:58.890Z,48.39
2018-09-13T14:21:28.784Z,50.23
2018-09-13T14:23:57.921Z,51.47
2018-09-13T14:26:27.169Z,52.27
2018-09-13T14:28:59.527Z,51.83
2018-09-13T14:31:29.861Z,51.93
2018-09-13T14:33:59.920Z,52.33
2018-09-13T14:36:29.902Z,53.26
2018-09-13T14:38:59.020Z,52.89
2018-09-13T14:41:28.161Z,52.97
2018-09-13T14:43:59.162Z,52.93
2018-09-13T14:46:28.280Z,53.48
2018-09-13T14:48:59.482Z,52.23
2018-09-13T14:51:28.739Z,53.12
2018-09-13T14:53:58.218Z,53.37
2018-09-13T14:56:27.930Z,52.74
2018-09-13T14:58:57.617Z,53.03
2018-09-13T15:01:27.558Z,52.11
2018-09-13T15:03:56.646Z,51.87
2018-09-13T15:06:25.812Z,49.24
2018-09-13T15:08:55.490Z,47.73
2018-09-13T15:11:25.249Z,48.05
2018-09-13T15:13:54.872Z,49.21
2018-09-13T15:16:24.920Z,50.24
2018-09-13T15:18:55.005Z,45.43
2018-09-13T15:21:25.379Z,41.95
2018-09-13T15:23:56.857Z,42.94
2018-09-13T15:26:27.598Z,41.43
2018-09-13T15:28:59.429Z,38.58
2018-09-13T15:31:29.606Z,35.37
2018-09-13T15:34:01.095Z,29.79
2018-09-13T15:36:31.141Z,27.62
2018-09-13T15:39:02.667Z,33.54
2018-09-13T15:41:32.879Z,37.21
2018-09-13T15:44:02.965Z,38.95
2018-09-13T15:46:33.156Z,40.22
2018-09-13T15:49:03.366Z,41.94
2018-09-13T15:51:34.387Z,42.33
2018-09-13T15:54:04.845Z,43.68
2018-09-13T15:56:35.031Z,45.02
2018-09-13T15:59:05.806Z,45.45
2018-09-13T16:01:36.626Z,45.42
2018-09-13T16:04:06.795Z,45.40
2018-09-13T16:06:39.858Z,46.14
2018-09-13T16:09:10.558Z,46.22
2018-09-13T16:11:40.829Z,45.76
2018-09-13T16:14:11.325Z,45.99
2018-09-13T16:16:42.576Z,46.86
2018-09-13T16:19:13.942Z,46.81
2018-09-13T16:21:44.384Z,46.27
2018-09-13T16:24:14.978Z,46.65
2018-09-13T16:26:46.540Z,47.06
2018-09-13T16:29:17.677Z,47.52
2018-09-13T16:31:49.799Z,48.53
2018-09-13T16:34:20.041Z,47.34
2018-09-13T16:36:59.758Z,48.00
2018-09-13T16:39:36.007Z,48.01
2018-09-13T16:42:11.924Z,48.13
2018-09-13T16:44:48.763Z,48.58
2018-09-13T16:47:30.537Z,48.72
2018-09-13T16:50:03.150Z,49.60
2018-09-13T16:52:33.983Z,49.35
2018-09-13T16:55:05.161Z,49.36
2018-09-13T16:57:36.597Z,49.36
2018-09-13T17:00:07.179Z,50.39
2018-09-13T17:02:37.995Z,50.59
2018-09-13T17:05:08.883Z,50.52
2018-09-13T17:07:40.029Z,50.57
2018-09-13T17:10:11.173Z,51.43
2018-09-13T17:12:41.401Z,50.82
2018-09-13T17:15:11.563Z,51.41
2018-09-13T17:17:42.591Z,51.63
2018-09-13T17:20:12.789Z,51.36
2018-09-13T17:22:43.761Z,52.61
2018-09-13T17:25:17.008Z,52.38
2018-09-13T17:27:47.467Z,52.28
2018-09-13T17:30:18.798Z,52.22
2018-09-13T17:32:50.590Z,52.22
2018-09-13T17:35:22.117Z,52.18
2018-09-13T17:40:21.288Z,53.23
2018-09-13T17:42:51.994Z,52.73
2018-09-13T17:45:24.034Z,53.37
2018-09-13T17:47:54.284Z,52.90
2018-09-13T17:50:24.761Z,54.11
2018-09-13T17:52:56.652Z,53.52
2018-09-13T17:55:27.852Z,53.52
2018-09-13T17:57:58.167Z,53.65
2018-09-13T18:00:28.549Z,54.65
2018-09-13T18:03:01.685Z,53.55
2018-09-13T18:05:33.088Z,54.29
2018-09-13T18:08:03.405Z,53.83
2018-09-13T18:10:34.809Z,54.59
2018-09-13T18:13:05.250Z,55.27
2018-09-13T18:15:36.601Z,55.72
2018-09-13T18:18:09.031Z,55.55
2018-09-13T18:20:40.704Z,55.68
2018-09-13T18:23:10.995Z,56.19
2018-09-13T18:25:42.195Z,56.55
2018-09-13T18:28:12.545Z,57.20
2018-09-13T18:30:46.936Z,56.83
2018-09-13T18:33:17.569Z,57.25
2018-09-13T18:35:48.211Z,56.95
2018-09-13T18:38:19.253Z,57.47
2018-09-13T18:40:49.610Z,56.99
2018-09-13T18:43:21.194Z,57.74
2018-09-13T18:45:53.133Z,57.73
2018-09-13T18:48:25.616Z,57.23
2018-09-13T18:50:56.005Z,57.61
2018-09-13T18:53:26.487Z,57.55
2018-09-13T18:55:57.820Z,58.41
2018-09-13T18:58:28.290Z,57.82
2018-09-13T19:00:58.494Z,58.88
2018-09-13T19:03:29.807Z,58.53
2018-09-13T19:06:02.867Z,58.90
2018-09-13T19:08:34.972Z,58.52
2018-09-13T19:11:06.266Z,58.87
2018-09-13T19:13:37.332Z,58.97
2018-09-13T19:16:09.320Z,58.94
2018-09-13T19:18:39.673Z,60.30
2018-09-13T19:21:10.367Z,60.46
2018-09-13T19:23:40.569Z,59.54
2018-09-13T19:26:11.323Z,60.61
2018-09-13T19:28:41.522Z,59.98
2018-09-13T19:31:20.736Z,60.50
2018-09-13T19:33:52.439Z,60.99
2018-09-13T19:36:23.328Z,60.85
2018-09-13T19:38:54.386Z,60.31
2018-09-13T19:41:26.457Z,61.13
2018-09-13T19:43:57.602Z,62.05
2018-09-13T19:46:29.286Z,62.30
2018-09-13T19:49:01.252Z,62.22
2018-09-13T19:51:31.836Z,65.91
2018-09-13T19:54:03.209Z,67.67
2018-09-13T19:56:34.121Z,67.70
2018-09-13T19:59:07.815Z,68.61
2018-09-13T20:01:38.322Z,70.77
2018-09-13T20:04:10.512Z,70.98
2018-09-13T20:06:42.101Z,72.47
2018-09-13T20:09:13.377Z,72.70
2018-09-13T20:11:45.052Z,72.54
2018-09-13T20:14:16.272Z,74.20
2018-09-13T20:16:46.555Z,75.11
2018-09-13T20:19:18.724Z,74.53
2018-09-13T20:21:50.415Z,75.64
2018-09-13T20:24:21.841Z,76.51
2018-09-13T20:26:52.473Z,76.97
2018-09-13T20:29:22.761Z,79.28
2018-09-13T20:31:53.069Z,80.04
2018-09-13T20:34:24.837Z,80.92
2018-09-13T20:36:56.685Z,81.35
2018-09-13T20:39:27.797Z,82.89
2018-09-13T20:41:59.766Z,84.05
2018-09-13T20:44:29.929Z,84.42
2018-09-13T20:47:08.171Z,84.91
2018-09-13T20:49:40.297Z,84.93
2018-09-13T20:52:11.228Z,85.13
2018-09-13T20:54:41.750Z,85.33
2018-09-13T20:57:11.961Z,85.98
2018-09-13T20:59:43.477Z,85.85
2018-09-13T21:02:14.702Z,85.95
2018-09-13T21:04:45.076Z,86.83
2018-09-13T21:07:16.666Z,87.15
2018-09-13T21:09:47.378Z,87.65
2018-09-13T21:12:19.094Z,88.01
2018-09-13T21:14:51.136Z,89.09
2018-09-13T21:17:21.813Z,88.84
2018-09-13T21:19:52.476Z,89.97
2018-09-13T21:22:23.404Z,90.33
2018-09-13T21:24:54.272Z,90.67
2018-09-13T21:27:25.274Z,90.48
2018-09-13T21:29:56.913Z,90.84
2018-09-13T21:32:27.685Z,90.91
2018-09-13T21:34:58.270Z,91.40
2018-09-13T21:37:29.118Z,92.33
2018-09-13T21:40:01.012Z,91.84
2018-09-13T21:42:31.226Z,92.04
2018-09-13T21:45:02.581Z,92.38
2018-09-13T21:47:34.991Z,92.76
2018-09-13T21:50:05.575Z,92.98
2018-09-13T21:52:36.440Z,92.85
2018-09-13T21:55:10.412Z,93.79
2018-09-13T21:57:40.526Z,93.76
2018-09-13T22:00:11.841Z,93.53
2018-09-13T22:02:43.170Z,94.90
2018-09-13T22:05:14.401Z,94.55
2018-09-13T22:07:46.886Z,95.27
2018-09-13T22:10:18.569Z,95.33
2018-09-13T22:12:48.795Z,95.27
2018-09-13T22:15:20.744Z,95.69
2018-09-13T22:17:52.042Z,95.73
2018-09-13T22:20:23.975Z,97.88
2018-09-13T22:22:54.624Z,98.83
2018-09-13T22:25:24.835Z,99.40
2018-09-13T22:27:55.238Z,99.79
2018-09-13T22:30:26.142Z,99.45
2018-09-13T22:32:57.160Z,100.00
2018-09-13T22:35:27.936Z,99.49
2018-09-13T22:38:00.268Z,99.52
2018-09-13T22:40:31.035Z,99.42
2018-09-13T22:43:01.753Z,100.00
2018-09-13T22:45:32.953Z,99.43
2018-09-13T22:48:03.204Z,99.17
2018-09-13T22:50:33.834Z,99.26
2018-09-13T22:53:05.976Z,99.74
2018-09-13T22:55:36.868Z,99.48
2018-09-13T22:58:08.280Z,100.00
2018-09-13T23:00:39.548Z,99.96
2018-09-13T23:03:09.847Z,99.53
2018-09-13T23:05:40.116Z,99.69
2018-09-13T23:08:11.218Z,99.42
2018-09-13T23:10:41.469Z,100.00
2018-09-13T23:13:12.491Z,100.00
2018-09-13T23:15:42.901Z,100.00
2018-09-13T23:18:14.150Z,99.73
2018-09-13T23:20:44.641Z,100.00
2018-09-13T23:23:16.601Z,100.00
2018-09-13T23:25:48.334Z,99.69
2018-09-13T23:28:19.463Z,99.33
2018-09-13T23:30:49.961Z,99.30
2018-09-13T23:33:21.486Z,100.00
2018-09-13T23:35:52.151Z,99.91
2018-09-13T23:38:24.421Z,99.43
2018-09-13T23:40:55.299Z,100.00
2018-09-13T23:43:25.530Z,99.43
2018-09-13T23:45:56.701Z,100.00
2018-09-13T23:48:28.462Z,99.89
2018-09-13T23:50:59.318Z,100.00
2018-09-13T23:53:29.924Z,99.93
2018-09-13T23:56:00.382Z,100.00
2018-09-13T23:58:31.699Z,100.00
